Time;durP1;ratioP1;P1;durP2;ratioP2;P2;SDS_P1;SDS_P2;PMS_P1;PMS_P2;Temp;Humidity;BMP_temperature;BMP_pressure;BME280_temperature;BME280_humidity;BME280_pressure;Samples;Min_cycle;Max_cycle;Signal;HPM_P1;HPM_P2
2022/01/04 00:01:38;;;;;;;22.92;10.90;;;;;;;6.16;96.80;98410.22;4498251;31;20151;-76
2022/01/04 00:04:06;;;;;;;20.15;11.27;;;;;;;6.33;95.67;98402.91;4501371;31;20096;-76
2022/01/04 00:06:33;;;;;;;17.73;10.40;;;;;;;6.24;95.92;98395.78;4500063;31;20548;-77
2022/01/04 00:09:05;;;;;;;21.08;11.27;;;;;;;6.13;96.70;98396.59;4501269;31;20114;-76
2022/01/04 00:11:56;;;;;;;21.50;11.73;;;;;;;6.18;96.38;98397.09;4501234;31;20132;-76
2022/01/04 00:14:20;;;;;;;20.30;11.27;;;;;;;6.10;96.88;98402.91;4501040;31;20505;-76
2022/01/04 00:16:47;;;;;;;21.20;11.18;;;;;;;6.03;97.44;98396.50;4501153;31;20143;-76
2022/01/04 00:19:15;;;;;;;19.75;10.98;;;;;;;5.89;98.35;98400.13;4501459;31;20183;-76
2022/01/04 00:21:42;;;;;;;22.75;12.40;;;;;;;5.95;98.39;98394.47;4486391;31;20100;-76
2022/01/04 00:24:09;;;;;;;21.37;11.75;;;;;;;5.92;98.42;98386.03;4485272;31;20465;-76
2022/01/04 00:26:36;;;;;;;19.90;10.52;;;;;;;5.91;98.32;98395.63;4485300;31;20389;-76
2022/01/04 00:29:03;;;;;;;17.85;9.40;;;;;;;5.98;97.19;98383.84;4485243;31;20119;-76
2022/01/04 00:31:31;;;;;;;17.10;9.85;;;;;;;6.12;95.68;98374.16;4485474;31;20446;-77
2022/01/04 00:33:58;;;;;;;22.95;10.45;;;;;;;6.17;95.60;98382.44;4485266;31;20087;-76
2022/01/04 00:36:25;;;;;;;20.52;8.73;;;;;;;6.15;95.85;98382.56;4485382;31;20104;-76
2022/01/04 00:38:53;;;;;;;20.65;9.75;;;;;;;6.16;95.54;98397.22;4485376;31;20092;-77
2022/01/04 00:41:20;;;;;;;17.58;9.93;;;;;;;6.26;94.74;98389.50;4485152;31;20088;-77
2022/01/04 00:43:47;;;;;;;17.33;9.45;;;;;;;6.25;94.58;98392.25;4485372;31;20115;-77
2022/01/04 00:46:17;;;;;;;17.02;8.63;;;;;;;6.28;94.58;98384.19;4485259;32;20096;-76
2022/01/04 00:51:31;;;;;;;17.85;8.93;;;;;;;6.32;94.70;98383.03;4485285;32;20100;-76
2022/01/04 00:53:58;;;;;;;18.00;9.05;;;;;;;6.34;94.89;98370.72;4485128;32;20126;-76
2022/01/04 00:56:26;;;;;;;15.93;8.93;;;;;;;6.36;95.14;98364.44;4485275;31;20123;-76
2022/01/04 00:58:53;;;;;;;23.95;10.13;;;;;;;6.38;94.93;98357.34;4483755;32;20127;-76
2022/01/04 01:01:21;;;;;;;20.17;9.43;;;;;;;6.49;95.14;98369.50;4495610;31;20167;-76
2022/01/04 01:03:49;;;;;;;16.40;8.45;;;;;;;6.56;95.06;98375.88;4500973;31;20094;-76
2022/01/04 01:06:17;;;;;;;18.52;9.57;;;;;;;6.68;94.86;98365.47;4500996;31;20571;-76
2022/01/04 01:08:44;;;;;;;18.90;9.98;;;;;;;6.83;94.23;98364.22;4500776;31;20093;-76
2022/01/04 01:11:12;;;;;;;18.77;9.48;;;;;;;6.81;94.38;98360.91;4500784;31;20138;-76
2022/01/04 01:13:40;;;;;;;18.67;9.65;;;;;;;6.80;94.59;98359.25;4500744;31;20110;-76
2022/01/04 01:16:08;;;;;;;16.83;9.23;;;;;;;6.85;94.25;98357.09;4500782;31;20157;-76
2022/01/04 01:18:36;;;;;;;20.98;9.88;;;;;;;6.91;94.57;98356.59;4500674;31;20159;-76
2022/01/04 01:21:05;;;;;;;19.92;9.65;;;;;;;6.96;94.40;98360.63;4490969;31;20455;-76
2022/01/04 01:23:34;;;;;;;18.02;9.38;;;;;;;6.84;95.35;98350.22;4484797;31;20080;-76
2022/01/04 01:26:02;;;;;;;18.70;9.48;;;;;;;6.67;96.17;98354.19;4485027;31;20118;-77
2022/01/04 01:28:30;;;;;;;15.52;8.55;;;;;;;6.75;96.02;98356.19;4484935;31;20120;-76
2022/01/04 01:30:57;;;;;;;20.45;9.50;;;;;;;6.72;96.36;98348.63;4484961;32;20092;-77
2022/01/04 01:33:24;;;;;;;17.80;9.80;;;;;;;6.68;97.06;98344.63;4483863;31;20100;-76
2022/01/04 01:35:51;;;;;;;19.33;10.85;;;;;;;6.61;97.08;98344.28;4484757;31;20096;-76
2022/01/04 01:38:19;;;;;;;16.42;9.30;;;;;;;6.60;96.80;98347.84;4484722;31;20639;-76
2022/01/04 01:40:48;;;;;;;19.35;11.35;;;;;;;6.49;96.89;98335.66;4484834;31;20253;-76
2022/01/04 01:43:15;;;;;;;20.17;10.63;;;;;;;6.33;97.66;98340.47;4484800;31;20115;-76
2022/01/04 01:45:43;;;;;;;21.45;10.68;;;;;;;6.22;98.28;98338.66;4484681;32;20115;-76
2022/01/04 01:48:11;;;;;;;23.33;12.23;;;;;;;6.28;98.11;98322.56;4485033;31;20104;-76
2022/01/04 01:50:39;;;;;;;17.12;9.90;;;;;;;6.16;98.60;98321.78;4484612;32;20157;-76
2022/01/04 01:53:06;;;;;;;22.73;11.45;;;;;;;6.08;99.22;98308.53;4484756;31;20110;-76
2022/01/04 01:55:33;;;;;;;20.10;10.80;;;;;;;6.02;99.70;98306.44;4484890;32;20157;-76
2022/01/04 01:58:01;;;;;;;21.27;11.52;;;;;;;6.01;99.84;98300.41;4484865;31;20119;-77
2022/01/04 02:00:29;;;;;;;20.42;11.95;;;;;;;5.96;100.00;98299.06;4489525;31;20125;-76
2022/01/04 02:02:57;;;;;;;19.23;10.57;;;;;;;5.92;100.00;98280.31;4500322;31;20080;-76
2022/01/04 02:05:25;;;;;;;20.50;12.10;;;;;;;5.81;100.00;98255.16;4500690;31;20099;-76
2022/01/04 02:07:52;;;;;;;19.55;11.52;;;;;;;5.76;100.00;98249.47;4500315;31;20115;-76
2022/01/04 02:10:19;;;;;;;25.17;13.23;;;;;;;5.64;100.00;98245.22;4498804;31;20795;-76
2022/01/04 02:12:49;;;;;;;23.02;12.15;;;;;;;5.63;100.00;98234.00;4500271;31;20133;-77
2022/01/04 02:15:18;;;;;;;23.67;11.43;;;;;;;5.48;100.00;98228.22;4499895;31;20114;-76
2022/01/04 02:17:45;;;;;;;21.73;11.85;;;;;;;5.44;100.00;98225.97;4500273;31;20632;-76
2022/01/04 02:20:13;;;;;;;23.48;12.40;;;;;;;5.59;100.00;98213.59;4495531;31;20168;-76
2022/01/04 02:22:40;;;;;;;26.75;14.55;;;;;;;5.47;100.00;98208.38;4484288;31;20127;-76
2022/01/04 02:25:08;;;;;;;26.77;13.10;;;;;;;5.46;100.00;98208.50;4484288;31;20119;-77
2022/01/04 02:27:37;;;;;;;24.08;13.15;;;;;;;5.46;100.00;98209.31;4484122;31;20163;-76
2022/01/04 02:30:06;;;;;;;27.08;13.77;;;;;;;5.37;100.00;98215.22;4484163;31;20119;-76
2022/01/04 02:32:34;;;;;;;25.75;13.05;;;;;;;5.31;100.00;98223.47;4484175;31;20529;-76
2022/01/04 02:35:02;;;;;;;26.60;13.27;;;;;;;5.39;100.00;98215.09;4484048;32;20152;-76
2022/01/04 02:37:30;;;;;;;25.27;14.25;;;;;;;5.47;100.00;98223.16;4484050;31;20516;-76
2022/01/04 02:39:57;;;;;;;26.20;13.02;;;;;;;5.51;100.00;98222.78;4483737;31;20096;-76
2022/01/04 02:42:25;;;;;;;24.67;12.65;;;;;;;5.58;100.00;98224.91;4484078;31;20163;-76
2022/01/04 02:44:52;;;;;;;29.27;13.00;;;;;;;5.64;100.00;98232.22;4484083;31;20092;-76
2022/01/04 02:47:19;;;;;;;27.92;13.30;;;;;;;5.57;100.00;98231.88;4486074;31;20155;-76
2022/01/04 02:49:46;;;;;;;24.85;12.90;;;;;;;5.56;100.00;98229.41;4486029;31;20152;-76
2022/01/04 02:52:13;;;;;;;22.87;11.48;;;;;;;5.51;100.00;98225.37;4485914;31;20084;-76
2022/01/04 02:54:40;;;;;;;25.40;12.55;;;;;;;5.54;100.00;98226.09;4485922;31;20130;-76
2022/01/04 02:57:08;;;;;;;21.67;11.85;;;;;;;5.60;100.00;98225.59;4486272;32;20115;-76
2022/01/04 02:59:35;;;;;;;20.27;11.55;;;;;;;5.63;100.00;98217.56;4485670;32;20119;-76
2022/01/04 03:02:03;;;;;;;23.52;11.65;;;;;;;5.61;100.00;98220.28;4500946;31;20091;-76
2022/01/04 03:04:32;;;;;;;23.08;11.60;;;;;;;5.58;100.00;98219.72;4501770;31;20434;-76
2022/01/04 03:07:02;;;;;;;24.15;12.07;;;;;;;5.48;100.00;98219.59;4502024;31;20123;-76
2022/01/04 03:09:29;;;;;;;23.35;12.05;;;;;;;5.53;100.00;98211.44;4501667;31;20092;-76
2022/01/04 03:11:57;;;;;;;23.67;12.15;;;;;;;5.44;100.00;98206.03;4501563;31;20168;-76
2022/01/04 03:14:24;;;;;;;22.45;11.75;;;;;;;5.46;100.00;98201.53;4501634;31;20096;-76
2022/01/04 03:16:52;;;;;;;21.40;11.48;;;;;;;5.49;100.00;98200.47;4501528;31;20132;-76
2022/01/04 03:19:19;;;;;;;22.13;11.12;;;;;;;5.43;100.00;98190.56;4501484;31;20096;-76
2022/01/04 03:21:46;;;;;;;21.25;11.98;;;;;;;5.39;100.00;98197.75;4486970;31;20110;-76
2022/01/04 03:24:15;;;;;;;22.55;11.30;;;;;;;5.33;100.00;98191.25;4485775;31;20485;-76
2022/01/04 03:26:42;;;;;;;23.60;12.05;;;;;;;5.27;100.00;98188.31;4485928;31;20126;-76
2022/01/04 03:29:12;;;;;;;22.20;11.18;;;;;;;5.20;100.00;98187.13;4485855;31;20120;-76
2022/01/04 03:31:39;;;;;;;20.58;10.85;;;;;;;5.07;100.00;98184.63;4485628;31;20104;-76
2022/01/04 03:34:07;;;;;;;21.67;10.90;;;;;;;5.12;100.00;98167.78;4485832;32;20095;-76
2022/01/04 03:36:35;;;;;;;19.95;10.77;;;;;;;5.11;100.00;98166.09;4485504;31;20460;-76
2022/01/04 03:39:05;;;;;;;20.90;10.23;;;;;;;5.04;100.00;98159.75;4485704;31;20088;-76
2022/01/04 03:41:37;;;;;;;20.27;10.75;;;;;;;4.92;100.00;98158.91;4485395;31;20080;-76
2022/01/04 03:44:05;;;;;;;22.52;11.00;;;;;;;4.92;100.00;98151.13;4485733;31;20235;-76
2022/01/04 03:46:34;;;;;;;20.95;10.68;;;;;;;4.92;100.00;98158.06;4485383;31;20096;-76
2022/01/04 03:49:01;;;;;;;20.83;10.07;;;;;;;4.87;100.00;98171.41;4485547;31;20492;-76
2022/01/04 03:51:29;;;;;;;20.73;11.43;;;;;;;4.88;100.00;98170.47;4485580;31;20504;-76
2022/01/04 03:54:02;;;;;;;20.92;11.25;;;;;;;4.76;100.00;98167.00;4485751;31;20508;-76
2022/01/04 03:56:30;;;;;;;18.77;10.73;;;;;;;4.75;100.00;98164.53;4484869;31;20148;-76
2022/01/04 03:58:57;;;;;;;20.70;10.77;;;;;;;4.79;100.00;98161.59;4485670;31;20105;-76
2022/01/04 04:01:24;;;;;;;24.20;11.18;;;;;;;4.71;100.00;98152.72;4496249;31;20538;-76
2022/01/04 04:03:52;;;;;;;20.98;11.43;;;;;;;4.67;100.00;98152.12;4500269;31;20141;-76
2022/01/04 04:06:19;;;;;;;19.73;10.70;;;;;;;4.58;100.00;98139.88;4501220;31;20390;-76
2022/01/04 04:08:46;;;;;;;23.00;11.27;;;;;;;4.49;100.00;98133.59;4501313;31;20088;-76
2022/01/04 04:11:13;;;;;;;20.48;10.38;;;;;;;4.55;100.00;98129.72;4501091;31;20095;-76
2022/01/04 04:13:40;;;;;;;22.98;10.90;;;;;;;4.55;100.00;98137.50;4501510;31;20118;-76
2022/01/04 04:16:08;;;;;;;20.02;11.12;;;;;;;4.50;100.00;98140.44;4500939;31;20525;-76
2022/01/04 04:18:35;;;;;;;20.27;11.18;;;;;;;4.54;100.00;98146.22;4500082;31;20091;-76
2022/01/04 04:21:02;;;;;;;22.55;11.40;;;;;;;4.59;100.00;98133.75;4491063;31;20100;-76
2022/01/04 04:23:29;;;;;;;21.62;10.48;;;;;;;4.54;100.00;98135.84;4485415;31;20508;-76
2022/01/04 04:25:57;;;;;;;21.20;10.77;;;;;;;4.46;100.00;98135.59;4485344;32;20132;-76
2022/01/04 04:28:24;;;;;;;18.75;10.27;;;;;;;4.42;100.00;98134.97;4485313;31;20504;-76
2022/01/04 04:30:51;;;;;;;20.52;10.40;;;;;;;4.50;100.00;98124.06;4485478;31;20092;-76
2022/01/04 04:33:18;;;;;;;19.92;10.48;;;;;;;4.45;100.00;98116.59;4485338;31;20107;-76
2022/01/04 04:35:45;;;;;;;20.75;10.07;;;;;;;4.46;100.00;98114.84;4485245;32;20096;-76
2022/01/04 04:38:13;;;;;;;21.48;9.65;;;;;;;4.48;100.00;98120.72;4485541;31;20088;-76
2022/01/04 04:40:40;;;;;;;19.10;9.65;;;;;;;4.58;100.00;98116.50;4485018;31;20111;-76
2022/01/04 04:43:07;;;;;;;19.70;10.10;;;;;;;4.59;100.00;98113.00;4485237;31;20080;-76
2022/01/04 04:45:34;;;;;;;20.02;10.32;;;;;;;4.59;100.00;98106.03;4485296;31;20387;-76
2022/01/04 04:48:02;;;;;;;21.10;10.38;;;;;;;4.57;100.00;98101.88;4485092;32;20514;-76
2022/01/04 04:50:29;;;;;;;17.02;9.55;;;;;;;4.49;100.00;98101.66;4485182;31;20513;-76
2022/01/04 04:52:57;;;;;;;21.15;11.07;;;;;;;4.39;100.00;98096.31;4484942;31;20123;-76
2022/01/04 04:55:24;;;;;;;20.10;10.18;;;;;;;4.35;100.00;98093.13;4485154;32;20108;-76
2022/01/04 04:57:51;;;;;;;19.70;9.68;;;;;;;4.24;100.00;98085.34;4485123;31;20133;-76
2022/01/04 05:00:19;;;;;;;25.02;10.60;;;;;;;4.12;100.00;98086.22;4488900;31;20104;-76
2022/01/04 05:02:46;;;;;;;20.83;9.88;;;;;;;4.03;100.00;98080.78;4500504;31;20126;-76
2022/01/04 05:05:13;;;;;;;19.50;10.23;;;;;;;4.00;100.00;98081.00;4500922;31;20080;-76
2022/01/04 05:07:41;;;;;;;18.33;10.02;;;;;;;3.95;100.00;98077.94;4500631;31;20096;-76
2022/01/04 05:10:09;;;;;;;19.12;10.48;;;;;;;3.82;100.00;98078.00;4500864;31;20122;-76
2022/01/04 05:12:36;;;;;;;17.70;9.13;;;;;;;3.68;100.00;98081.59;4500597;31;20095;-76
2022/01/04 05:15:04;;;;;;;20.25;10.15;;;;;;;3.67;100.00;98085.12;4500061;31;20119;-76
2022/01/04 05:17:32;;;;;;;18.10;9.00;;;;;;;3.80;100.00;98090.25;4500140;31;20084;-76
2022/01/04 05:19:59;;;;;;;17.17;9.07;;;;;;;3.74;100.00;98093.28;4498023;31;20092;-76
2022/01/04 05:22:26;;;;;;;20.35;10.98;;;;;;;3.66;100.00;98086.03;4484844;31;20437;-77
2022/01/04 05:24:54;;;;;;;20.42;10.90;;;;;;;3.68;100.00;98080.75;4484889;32;20149;-76
2022/01/04 05:27:21;;;;;;;18.00;9.60;;;;;;;3.72;100.00;98077.84;4484864;31;20088;-77
2022/01/04 05:29:48;;;;;;;19.62;9.90;;;;;;;3.71;100.00;98075.38;4490641;31;20099;-77
2022/01/04 05:32:15;;;;;;;17.45;8.80;;;;;;;3.66;100.00;98072.28;4500337;31;20433;-77
2022/01/04 05:34:42;;;;;;;17.85;9.10;;;;;;;3.72;100.00;98061.47;4500514;31;20092;-77
2022/01/04 05:37:10;;;;;;;20.42;8.88;;;;;;;3.65;100.00;98050.75;4495720;31;20096;-77
2022/01/04 05:39:37;;;;;;;19.40;8.88;;;;;;;3.55;100.00;98054.91;4488146;31;20462;-77
2022/01/04 05:42:05;;;;;;;19.75;9.05;;;;;;;3.47;100.00;98057.25;4497417;31;20104;-77
2022/01/04 05:44:32;;;;;;;20.25;9.82;;;;;;;3.49;100.00;98047.59;4489626;31;20087;-77
2022/01/04 05:46:59;;;;;;;19.95;9.77;;;;;;;3.46;100.00;98034.87;4492357;31;20092;-77
2022/01/04 05:49:26;;;;;;;18.17;10.20;;;;;;;3.43;100.00;98029.91;4495597;31;20095;-77
2022/01/04 05:51:53;;;;;;;17.48;9.65;;;;;;;3.35;100.00;98023.50;4488584;31;20445;-77
2022/01/04 05:54:21;;;;;;;19.85;9.52;;;;;;;3.34;100.00;98021.03;4496497;31;20127;-77
2022/01/04 05:56:48;;;;;;;18.23;9.60;;;;;;;3.40;100.00;98020.59;4486522;31;20096;-77
2022/01/04 05:59:15;;;;;;;17.00;9.38;;;;;;;3.46;100.00;98027.09;4500049;31;20434;-76
2022/01/04 06:01:42;;;;;;;18.60;9.20;;;;;;;3.38;100.00;98025.88;4495783;31;20091;-76
2022/01/04 06:04:11;;;;;;;15.52;8.40;;;;;;;3.30;100.00;98023.03;4487025;31;20122;-75
2022/01/04 06:06:40;;;;;;;14.80;8.30;;;;;;;3.24;100.00;98035.56;4485013;31;20152;-76
2022/01/04 06:09:16;;;;;;;16.50;8.77;;;;;;;3.28;100.00;98032.66;4491190;31;20126;-76
2022/01/04 06:11:56;;;;;;;20.83;8.85;;;;;;;3.13;100.00;98024.22;4494282;31;20123;-76
2022/01/04 06:17:11;;;;;;;15.48;8.02;;;;;;;3.03;100.00;98018.06;4493578;31;20674;-76
2022/01/04 06:19:39;;;;;;;15.57;8.60;;;;;;;3.11;100.00;98014.91;4493564;31;20530;-76
2022/01/04 06:22:07;;;;;;;16.92;9.13;;;;;;;3.07;100.00;98021.25;4501604;31;20426;-77
2022/01/04 06:24:34;;;;;;;13.65;8.73;;;;;;;3.01;100.00;98012.13;4491952;31;20138;-76
2022/01/04 06:27:10;;;;;;;15.98;8.68;;;;;;;3.01;100.00;98015.56;4499234;31;20088;-77
2022/01/04 06:29:38;;;;;;;17.90;8.20;;;;;;;3.10;100.00;98013.25;4498515;31;20095;-76
2022/01/04 06:32:07;;;;;;;16.48;8.52;;;;;;;3.06;100.00;98001.47;4492231;31;20406;-76
2022/01/04 06:34:35;;;;;;;16.42;8.27;;;;;;;3.07;100.00;97993.59;4501935;31;20119;-77
2022/01/04 06:37:03;;;;;;;14.18;8.55;;;;;;;3.02;100.00;97990.50;4494940;31;20797;-75
2022/01/04 06:39:30;;;;;;;15.30;8.65;;;;;;;2.99;100.00;97988.16;4496091;31;20119;-78
2022/01/04 06:41:58;;;;;;;14.35;8.20;;;;;;;3.07;100.00;97980.66;4500225;31;20164;-77
2022/01/04 06:44:31;;;;;;;17.60;8.07;;;;;;;3.10;100.00;97982.19;4504529;31;20108;-78
2022/01/04 06:46:58;;;;;;;16.45;7.80;;;;;;;3.18;100.00;97977.31;4502074;31;20096;-77
2022/01/04 06:49:25;;;;;;;20.67;8.30;;;;;;;3.18;100.00;97979.91;4504760;31;20099;-77
2022/01/04 06:51:53;;;;;;;16.75;9.02;;;;;;;3.20;100.00;97967.69;4493518;31;20446;-77
2022/01/04 06:54:20;;;;;;;14.00;7.10;;;;;;;3.26;100.00;97972.41;4501315;31;20159;-76
2022/01/04 06:56:48;;;;;;;15.20;7.82;;;;;;;3.49;100.00;97967.31;4504677;31;20465;-76
2022/01/04 06:59:16;;;;;;;14.98;7.65;;;;;;;3.58;100.00;97977.00;4503540;31;20172;-76
2022/01/04 07:01:44;;;;;;;14.23;8.23;;;;;;;3.63;100.00;97966.31;4504179;31;20095;-75
2022/01/04 07:04:12;;;;;;;14.45;7.95;;;;;;;3.70;100.00;97968.31;4490200;31;20148;-76
2022/01/04 07:06:40;;;;;;;17.73;8.00;;;;;;;3.88;100.00;97963.53;4501948;31;20152;-76
2022/01/04 07:09:08;;;;;;;14.85;7.28;;;;;;;4.00;100.00;97966.97;4501515;31;20151;-77
2022/01/04 07:11:35;;;;;;;12.93;6.82;;;;;;;4.18;100.00;97963.94;4494829;31;20115;-76
2022/01/04 07:14:03;;;;;;;17.02;8.55;;;;;;;4.28;100.00;97975.25;4501375;31;20220;-77
2022/01/04 07:16:31;;;;;;;17.62;7.70;;;;;;;4.43;100.00;97988.81;4502433;31;20104;-76
2022/01/04 07:18:58;;;;;;;12.73;7.00;;;;;;;4.51;100.00;97986.47;4503689;31;20096;-75
2022/01/04 07:21:26;;;;;;;14.30;6.97;;;;;;;4.69;100.00;97986.78;4503459;31;20116;-74
2022/01/04 07:23:55;;;;;;;13.00;6.85;;;;;;;4.94;100.00;97990.09;4499251;31;20123;-76
2022/01/04 07:26:22;;;;;;;14.68;7.43;;;;;;;4.89;100.00;98000.00;4503875;31;20147;-77
2022/01/04 07:28:50;;;;;;;13.85;7.18;;;;;;;5.07;100.00;97993.38;4499782;31;20484;-76
2022/01/04 07:31:18;;;;;;;11.75;6.78;;;;;;;5.15;100.00;97998.75;4494690;31;20452;-76
2022/01/04 07:33:45;;;;;;;13.32;6.45;;;;;;;5.24;100.00;97998.97;4499755;31;20100;-75
2022/01/04 07:36:14;;;;;;;12.82;7.37;;;;;;;5.39;100.00;97996.91;4495120;31;20100;-76
2022/01/04 07:38:42;;;;;;;13.75;7.37;;;;;;;5.49;100.00;97980.47;4500826;31;20091;-76
2022/01/04 07:41:10;;;;;;;18.15;9.02;;;;;;;5.52;100.00;97976.81;4500265;31;20099;-77
2022/01/04 07:43:37;;;;;;;13.62;7.90;;;;;;;5.65;100.00;97971.44;4494755;31;20134;-78
2022/01/04 07:46:04;;;;;;;14.02;7.15;;;;;;;5.60;100.00;97968.38;4499849;31;20308;-76
2022/01/04 07:48:32;;;;;;;12.07;6.53;;;;;;;5.64;100.00;97972.38;4489887;31;20873;-76
2022/01/04 07:50:59;;;;;;;12.02;6.57;;;;;;;5.86;100.00;97969.66;4500988;31;20091;-75
2022/01/04 07:53:30;;;;;;;14.73;7.12;;;;;;;5.81;100.00;97968.38;4500918;31;20114;-75
2022/01/04 07:55:57;;;;;;;12.65;6.53;;;;;;;5.84;100.00;97961.19;4495178;31;20104;-75
2022/01/04 07:58:25;;;;;;;9.73;5.75;;;;;;;6.00;100.00;97965.13;4484351;31;20155;-75
2022/01/04 08:00:53;;;;;;;10.95;5.60;;;;;;;6.19;100.00;97946.19;4500506;31;20099;-75
2022/01/04 08:03:21;;;;;;;10.75;6.07;;;;;;;6.36;99.69;97945.59;4500932;31;20092;-75
2022/01/04 08:05:54;;;;;;;11.50;6.35;;;;;;;6.49;99.29;97950.56;4501023;31;20155;-76
2022/01/04 08:08:22;;;;;;;10.57;5.80;;;;;;;6.49;98.35;97949.75;4501046;31;20454;-75
2022/01/04 08:10:51;;;;;;;9.60;5.15;;;;;;;6.55;98.14;97944.81;4500892;31;20434;-75
2022/01/04 08:13:19;;;;;;;10.80;5.80;;;;;;;6.65;97.55;97946.66;4499554;31;20108;-74
2022/01/04 08:15:46;;;;;;;11.20;5.80;;;;;;;6.77;97.16;97932.59;4489170;31;20513;-74
2022/01/04 08:18:13;;;;;;;10.85;5.72;;;;;;;6.92;96.68;97930.44;4498498;31;20781;-75
2022/01/04 08:20:40;;;;;;;18.90;6.28;;;;;;;6.98;95.67;97921.22;4496238;31;20365;-74
2022/01/04 08:23:13;;;;;;;13.23;7.18;;;;;;;7.01;95.75;97911.38;4498678;31;20111;-75
2022/01/04 08:25:40;;;;;;;10.98;5.68;;;;;;;6.99;95.78;97909.88;4500602;31;20126;-75
2022/01/04 08:28:07;;;;;;;10.43;5.50;;;;;;;7.09;96.53;97913.31;4499394;31;20108;-78
2022/01/04 08:30:34;;;;;;;9.95;5.80;;;;;;;7.06;94.74;97906.56;4498852;31;20104;-74
2022/01/04 08:33:01;;;;;;;11.50;5.45;;;;;;;7.21;94.02;97895.75;4499612;31;20100;-76
2022/01/04 08:35:28;;;;;;;10.70;5.50;;;;;;;7.30;92.65;97897.53;4500462;31;20147;-76
2022/01/04 08:37:56;;;;;;;8.55;4.95;;;;;;;7.19;94.04;97906.31;4500183;31;20095;-75
2022/01/04 08:40:23;;;;;;;18.08;6.85;;;;;;;7.31;93.76;97903.56;4500774;31;20437;-77
2022/01/04 08:42:50;;;;;;;8.85;5.28;;;;;;;7.29;93.20;97912.34;4500322;31;20118;-75
2022/01/04 08:45:20;;;;;;;11.05;5.45;;;;;;;7.26;93.08;97907.41;4500067;31;20136;-75
2022/01/04 08:47:49;;;;;;;8.35;5.18;;;;;;;7.13;95.60;97917.28;4499090;31;20503;-76
2022/01/04 08:50:17;;;;;;;10.15;5.57;;;;;;;7.17;95.59;97910.00;4500345;31;20457;-75
2022/01/04 08:52:44;;;;;;;10.00;5.72;;;;;;;7.06;96.11;97901.38;4500291;31;20100;-76
2022/01/04 08:55:12;;;;;;;10.27;5.95;;;;;;;7.18;96.13;97909.88;4500578;31;20084;-76
2022/01/04 08:57:39;;;;;;;12.00;6.55;;;;;;;7.37;94.85;97905.63;4500264;31;20096;-76
2022/01/04 09:00:08;;;;;;;11.55;6.65;;;;;;;7.29;95.03;97896.69;4500049;31;20827;-78
2022/01/04 09:02:35;;;;;;;11.63;6.20;;;;;;;7.18;95.92;97891.66;4500102;31;20091;-76
2022/01/04 09:05:03;;;;;;;11.45;6.03;;;;;;;7.40;95.02;97869.69;4500812;31;20088;-75
2022/01/04 09:07:31;;;;;;;11.07;6.62;;;;;;;7.32;94.86;97879.16;4499546;31;20135;-76
2022/01/04 09:09:58;;;;;;;12.32;6.70;;;;;;;7.42;94.51;97893.81;4499448;31;20647;-75
2022/01/04 09:12:38;;;;;;;11.38;6.93;;;;;;;7.59;93.46;97891.47;4500024;31;20641;-76
2022/01/04 09:15:30;;;;;;;11.52;6.12;;;;;;;7.56;94.23;97876.13;4499947;31;20103;-76
2022/01/04 09:20:40;;;;;;;8.27;5.05;;;;;;;7.74;92.84;97861.38;4499947;31;20118;-75
2022/01/04 09:23:08;;;;;;;12.15;5.47;;;;;;;7.65;93.46;97857.03;4499769;31;20104;-75
2022/01/04 09:25:35;;;;;;;8.90;5.60;;;;;;;7.52;94.30;97864.31;4500615;31;20122;-75
2022/01/04 09:28:08;;;;;;;11.23;5.75;;;;;;;7.66;93.21;97856.06;4497402;31;20122;-75
2022/01/04 09:30:35;;;;;;;9.93;5.75;;;;;;;7.72;93.65;97849.44;4496730;31;20122;-76
2022/01/04 09:33:04;;;;;;;10.05;6.22;;;;;;;7.78;92.81;97848.88;4496111;31;20100;-76
2022/01/04 09:35:36;;;;;;;9.57;6.30;;;;;;;7.68;92.78;97845.50;4496961;31;20108;-76
2022/01/04 09:38:04;;;;;;;10.50;6.30;;;;;;;7.75;93.28;97830.91;4493200;31;20104;-76
2022/01/04 09:40:32;;;;;;;11.25;6.25;;;;;;;7.70;93.53;97820.91;4495718;31;20084;-74
2022/01/04 09:43:00;;;;;;;11.50;6.32;;;;;;;7.64;94.29;97824.94;4495057;31;20096;-75
2022/01/04 09:45:28;;;;;;;10.40;6.05;;;;;;;7.75;93.92;97823.09;4491626;31;20472;-75
2022/01/04 09:47:55;;;;;;;11.70;6.37;;;;;;;7.76;94.79;97824.75;4495309;31;20100;-75
2022/01/04 09:50:23;;;;;;;13.20;5.78;;;;;;;7.83;95.07;97815.41;4496035;31;20816;-75
2022/01/04 09:52:52;;;;;;;11.60;6.20;;;;;;;7.93;95.12;97802.31;4488881;31;20130;-75
2022/01/04 09:55:20;;;;;;;13.25;6.62;;;;;;;7.94;94.27;97781.31;4492734;31;20920;-75
2022/01/04 09:57:48;;;;;;;9.23;5.60;;;;;;;8.23;93.68;97776.91;4497339;31;20457;-75
2022/01/04 10:00:17;;;;;;;9.43;5.10;;;;;;;8.65;91.72;97776.37;4492570;31;20118;-76
2022/01/04 10:02:46;;;;;;;7.68;5.00;;;;;;;9.00;89.64;97765.06;4496237;31;20103;-76
2022/01/04 10:05:29;;;;;;;8.30;5.12;;;;;;;9.27;91.07;97767.72;4498626;31;20108;-76
2022/01/04 10:08:08;;;;;;;10.70;5.70;;;;;;;9.64;87.55;97764.78;4495049;31;20108;-76
2022/01/04 10:10:36;;;;;;;10.30;5.57;;;;;;;9.79;86.58;97764.22;4495532;31;20096;-76
2022/01/04 10:13:10;;;;;;;10.93;5.72;;;;;;;9.83;86.00;97757.72;4498898;31;20087;-76
2022/01/04 10:15:46;;;;;;;8.15;5.35;;;;;;;9.86;86.30;97746.94;4498965;31;20620;-77
2022/01/04 10:18:13;;;;;;;8.73;5.20;;;;;;;9.62;87.33;97743.22;4496919;31;20454;-76
2022/01/04 10:20:42;;;;;;;10.18;5.43;;;;;;;9.58;87.97;97742.72;4497409;31;20107;-77
2022/01/04 10:23:12;;;;;;;10.43;5.10;;;;;;;9.64;88.79;97730.00;4497687;31;20460;-76
2022/01/04 10:25:40;;;;;;;9.48;4.78;;;;;;;9.94;88.13;97739.09;4495530;31;20162;-76
2022/01/04 10:28:12;;;;;;;8.80;5.68;;;;;;;9.90;87.99;97738.63;4496241;31;20541;-76
2022/01/04 10:30:43;;;;;;;8.02;4.72;;;;;;;9.95;87.64;97735.53;4495744;31;20150;-77
2022/01/04 10:33:16;;;;;;;7.30;4.60;;;;;;;9.99;87.42;97736.00;4497675;31;20152;-76
2022/01/04 10:35:45;;;;;;;7.72;4.70;;;;;;;9.79;88.83;97720.56;4486516;31;20155;-76
2022/01/04 10:38:17;;;;;;;9.70;5.35;;;;;;;9.72;89.31;97715.16;4496579;31;21013;-76
2022/01/04 10:40:56;;;;;;;8.20;4.60;;;;;;;9.89;88.02;97720.47;4496539;31;20122;-76
2022/01/04 10:43:27;;;;;;;8.02;4.20;;;;;;;9.94;88.46;97723.41;4492445;31;20606;-76
2022/01/04 10:45:55;;;;;;;6.87;4.70;;;;;;;10.11;85.67;97725.09;4485952;31;20269;-75
2022/01/04 10:48:23;;;;;;;7.10;4.78;;;;;;;10.25;85.52;97728.88;4495180;31;20571;-74
2022/01/04 10:51:08;;;;;;;7.90;4.50;;;;;;;10.36;85.18;97726.97;4496415;31;20156;-75
2022/01/04 10:53:38;;;;;;;7.57;4.18;;;;;;;10.33;84.39;97722.03;4498387;31;20444;-74
2022/01/04 10:56:13;;;;;;;7.07;4.65;;;;;;;10.29;85.05;97713.66;4496194;31;20080;-74
2022/01/04 10:58:45;;;;;;;10.27;5.78;;;;;;;10.19;85.67;97711.22;4496100;31;20096;-74
2022/01/04 11:01:25;;;;;;;6.45;4.00;;;;;;;10.18;87.22;97706.13;4497433;31;20114;-74
2022/01/04 11:03:55;;;;;;;8.95;4.57;;;;;;;10.05;86.86;97704.81;4498363;31;20204;-74
2022/01/04 11:06:34;;;;;;;6.43;4.10;;;;;;;9.89;87.36;97694.28;4497692;31;20096;-74
2022/01/04 11:09:03;;;;;;;7.43;3.90;;;;;;;9.92;87.21;97686.94;4500214;31;20112;-74
2022/01/04 11:11:31;;;;;;;8.63;4.40;;;;;;;10.03;87.46;97677.16;4499517;31;20417;-75
2022/01/04 11:13:59;;;;;;;5.85;4.12;;;;;;;9.89;87.48;97682.03;4498796;31;20096;-75
2022/01/04 11:16:29;;;;;;;7.37;4.20;;;;;;;9.86;86.91;97674.50;4497730;31;20103;-75
2022/01/04 11:18:58;;;;;;;7.03;4.25;;;;;;;9.68;88.41;97666.75;4497535;31;20076;-75
2022/01/04 11:21:28;;;;;;;6.00;3.87;;;;;;;9.58;87.71;97645.16;4501537;31;20426;-79
2022/01/04 11:23:56;;;;;;;7.70;4.32;;;;;;;9.54;88.61;97649.06;4497533;31;20830;-78
2022/01/04 11:26:25;;;;;;;7.43;4.07;;;;;;;9.42;89.34;97643.31;4496987;31;20416;-81
2022/01/04 11:28:53;;;;;;;7.40;4.25;;;;;;;9.40;89.63;97650.47;4498902;31;20096;-81
2022/01/04 11:31:55;;;;;;;6.45;3.40;;;;;;;9.46;89.35;97662.09;4501282;31;20524;-77
2022/01/04 11:34:53;;;;;;;11.23;4.80;;;;;;;9.63;89.13;97662.97;4497246;31;20099;-78
2022/01/04 11:37:21;;;;;;;6.75;3.90;;;;;;;9.67;89.13;97672.16;4498899;31;20131;-77
2022/01/04 11:39:51;;;;;;;5.82;3.62;;;;;;;9.64;88.90;97654.97;4497571;31;20080;-77
2022/01/04 11:42:30;;;;;;;6.53;4.10;;;;;;;9.66;89.07;97632.13;4500586;31;20614;-78